WGTL01 YMES-YPTN
Flight info
| Callsign | WGTL01 |
|---|---|
| Flight time | 4h 30m |
| Altitude | 40000 |
| Route | MNG Q76 KADUV G222 GUGAB T25 TNK J30 TN |
| Aircraft | E737/M-SDE2E3FGHIRWXY/LB1 |
Departure
| Time | 2026-05-04 03:48 |
|---|---|
| Airport | RAAF Base East Sale (YMES) |
Arrival
| Time | 2026-05-04 08:19 |
|---|---|
| Airport | Tindal Airport (YPTN) |
| Time | Latitude | Longitude | Altitude | Speed | Heading |
|---|---|---|---|---|---|
| 2026-05-04 03:39 | -38.09826 | 147.12846 | 36 ft | 0 kts | 99° |
| 2026-05-04 03:46 | -38.09819 | 147.12868 | 36 ft | 7 kts | 23° |
| 2026-05-04 03:47 | -38.09748 | 147.12817 | 35 ft | 2 kts | 348° |
| 2026-05-04 03:47 | -38.09726 | 147.12816 | 35 ft | 9 kts | 4° |
| 2026-05-04 03:47 | -38.09681 | 147.12822 | 35 ft | 4 kts | 8° |
| 2026-05-04 03:47 | -38.09592 | 147.12845 | 35 ft | 18 kts | 37° |
| 2026-05-04 03:48 | -38.09599 | 147.13124 | 34 ft | 70 kts | 97° |
| 2026-05-04 03:48 | -38.09719 | 147.14104 | 34 ft | 153 kts | 98° |
| 2026-05-04 03:48 | -38.09935 | 147.15585 | 536 ft | 184 kts | 97° |
| 2026-05-04 03:48 | -38.10154 | 147.17278 | 1260 ft | 206 kts | 93° |
| 2026-05-04 03:49 | -38.10340 | 147.19032 | 2207 ft | 208 kts | 91° |
| 2026-05-04 03:49 | -38.10278 | 147.20851 | 2812 ft | 214 kts | 68° |
| 2026-05-04 03:49 | -38.09544 | 147.22487 | 3440 ft | 218 kts | 42° |
| 2026-05-04 03:49 | -38.08381 | 147.23756 | 4049 ft | 227 kts | 29° |
| 2026-05-04 03:50 | -38.06941 | 147.24532 | 4760 ft | 228 kts | 6° |
| 2026-05-04 03:50 | -38.05398 | 147.24393 | 5621 ft | 225 kts | 343° |
| 2026-05-04 03:50 | -38.03979 | 147.23624 | 6512 ft | 224 kts | 329° |
| 2026-05-04 03:50 | -38.02834 | 147.22275 | 7315 ft | 232 kts | 304° |
| 2026-05-04 03:51 | -38.02288 | 147.20366 | 8210 ft | 240 kts | 285° |
| 2026-05-04 03:51 | -38.02045 | 147.18234 | 8858 ft | 255 kts | 282° |
| 2026-05-04 03:51 | -38.01809 | 147.15985 | 9684 ft | 261 kts | 282° |
| 2026-05-04 03:51 | -38.01559 | 147.13715 | 10625 ft | 263 kts | 283° |
| 2026-05-04 03:52 | -38.01304 | 147.11449 | 11454 ft | 268 kts | 282° |
| 2026-05-04 03:52 | -38.01039 | 147.09085 | 12345 ft | 272 kts | 282° |
| 2026-05-04 03:52 | -38.00776 | 147.06732 | 13240 ft | 275 kts | 282° |
| 2026-05-04 03:52 | -38.00505 | 147.04321 | 14048 ft | 281 kts | 282° |
| 2026-05-04 03:53 | -38.00234 | 147.01891 | 14955 ft | 284 kts | 283° |
| 2026-05-04 03:53 | -37.99871 | 146.99431 | 15834 ft | 285 kts | 289° |
| 2026-05-04 03:53 | -37.99150 | 146.97130 | 16626 ft | 285 kts | 303° |
| 2026-05-04 03:53 | -37.98004 | 146.95077 | 17209 ft | 295 kts | 311° |
| 2026-05-04 03:54 | -37.96675 | 146.93018 | 17724 ft | 309 kts | 312° |
| 2026-05-04 03:54 | -37.95301 | 146.90832 | 18207 ft | 324 kts | 311° |
| 2026-05-04 03:54 | -37.93908 | 146.88562 | 18696 ft | 337 kts | 310° |
| 2026-05-04 03:54 | -37.92451 | 146.86156 | 19271 ft | 347 kts | 310° |
| 2026-05-04 03:55 | -37.90998 | 146.83752 | 20104 ft | 350 kts | 310° |
| 2026-05-04 03:55 | -37.89530 | 146.81331 | 20993 ft | 350 kts | 310° |
| 2026-05-04 03:55 | -37.88039 | 146.78874 | 21822 ft | 352 kts | 310° |
| 2026-05-04 03:55 | -37.86547 | 146.76421 | 22568 ft | 355 kts | 310° |
| 2026-05-04 03:56 | -37.85033 | 146.73933 | 23327 ft | 358 kts | 310° |
| 2026-05-04 03:56 | -37.83512 | 146.71442 | 24096 ft | 359 kts | 311° |
| 2026-05-04 03:56 | -37.82001 | 146.68967 | 24686 ft | 364 kts | 310° |
| 2026-05-04 03:56 | -37.80445 | 146.66422 | 25319 ft | 368 kts | 310° |
| 2026-05-04 03:57 | -37.78872 | 146.63850 | 25983 ft | 370 kts | 310° |
| 2026-05-04 03:57 | -37.77312 | 146.61299 | 26577 ft | 373 kts | 311° |
| 2026-05-04 03:57 | -37.75715 | 146.58693 | 27197 ft | 375 kts | 311° |
| 2026-05-04 03:57 | -37.74109 | 146.56074 | 27785 ft | 378 kts | 310° |
| 2026-05-04 03:58 | -37.70864 | 146.50784 | 28859 ft | 384 kts | 311° |
| 2026-05-04 03:58 | -37.69241 | 146.48140 | 29426 ft | 386 kts | 311° |
| 2026-05-04 03:58 | -37.67589 | 146.45454 | 29943 ft | 388 kts | 310° |
| 2026-05-04 03:59 | -37.65932 | 146.42764 | 30404 ft | 391 kts | 310° |
| 2026-05-04 03:59 | -37.64243 | 146.40024 | 30741 ft | 396 kts | 310° |
| 2026-05-04 03:59 | -37.62573 | 146.37315 | 31250 ft | 396 kts | 310° |
| 2026-05-04 03:59 | -37.60884 | 146.34576 | 31911 ft | 392 kts | 311° |
| 2026-05-04 04:00 | -37.59221 | 146.31879 | 32533 ft | 389 kts | 310° |
| 2026-05-04 04:00 | -37.57585 | 146.29224 | 33129 ft | 386 kts | 310° |
| 2026-05-04 04:00 | -37.55931 | 146.26547 | 33660 ft | 384 kts | 310° |
| 2026-05-04 04:00 | -37.54296 | 146.23904 | 34071 ft | 384 kts | 310° |
| 2026-05-04 04:01 | -37.52663 | 146.21271 | 34424 ft | 385 kts | 310° |
| 2026-05-04 04:01 | -37.51026 | 146.18633 | 34763 ft | 386 kts | 310° |
| 2026-05-04 04:01 | -37.49369 | 146.15962 | 35141 ft | 385 kts | 310° |
| 2026-05-04 04:01 | -37.47730 | 146.13327 | 35520 ft | 385 kts | 310° |
| 2026-05-04 04:02 | -37.46077 | 146.10669 | 35816 ft | 388 kts | 309° |
| 2026-05-04 04:02 | -37.44416 | 146.07996 | 36103 ft | 392 kts | 309° |
| 2026-05-04 04:02 | -37.42726 | 146.05280 | 36454 ft | 393 kts | 309° |
| 2026-05-04 04:02 | -37.41061 | 146.02605 | 36878 ft | 392 kts | 309° |
| 2026-05-04 04:03 | -37.39389 | 145.99921 | 37336 ft | 390 kts | 309° |
| 2026-05-04 04:03 | -37.37724 | 145.97253 | 37698 ft | 390 kts | 309° |
| 2026-05-04 04:03 | -37.36048 | 145.94572 | 38039 ft | 390 kts | 309° |
| 2026-05-04 04:03 | -37.34366 | 145.91882 | 38357 ft | 391 kts | 309° |
| 2026-05-04 04:04 | -37.32705 | 145.89227 | 38689 ft | 391 kts | 309° |
| 2026-05-04 04:04 | -37.31026 | 145.86543 | 39002 ft | 392 kts | 309° |
| 2026-05-04 04:04 | -37.29335 | 145.83846 | 39278 ft | 393 kts | 308° |
| 2026-05-04 04:04 | -37.27640 | 145.81142 | 39580 ft | 393 kts | 309° |
| 2026-05-04 04:05 | -37.25968 | 145.78477 | 39804 ft | 394 kts | 309° |
| 2026-05-04 04:05 | -37.24263 | 145.75761 | 39913 ft | 396 kts | 308° |
| 2026-05-04 04:05 | -37.20855 | 145.70342 | 39919 ft | 393 kts | 308° |
| 2026-05-04 04:06 | -37.17494 | 145.65004 | 39924 ft | 393 kts | 308° |
| 2026-05-04 04:06 | -37.14108 | 145.59637 | 39919 ft | 392 kts | 308° |
| 2026-05-04 04:07 | -37.10740 | 145.54305 | 39918 ft | 394 kts | 308° |
| 2026-05-04 04:07 | -37.07356 | 145.48961 | 39919 ft | 392 kts | 308° |
| 2026-05-04 04:08 | -37.03973 | 145.43623 | 39920 ft | 392 kts | 308° |
| 2026-05-04 04:08 | -37.00583 | 145.38283 | 39925 ft | 393 kts | 308° |
| 2026-05-04 04:09 | -36.97185 | 145.32941 | 39923 ft | 393 kts | 309° |
| 2026-05-04 04:09 | -36.93781 | 145.27623 | 39924 ft | 394 kts | 309° |
| 2026-05-04 04:10 | -36.89833 | 145.22900 | 39921 ft | 396 kts | 324° |
| 2026-05-04 04:10 | -36.84797 | 145.20023 | 39923 ft | 403 kts | 338° |
| 2026-05-04 04:11 | -36.79258 | 145.18631 | 39923 ft | 412 kts | 348° |
| 2026-05-04 04:11 | -36.73504 | 145.18249 | 39923 ft | 414 kts | 352° |
| 2026-05-04 04:12 | -36.67730 | 145.18034 | 39926 ft | 414 kts | 352° |
| 2026-05-04 04:12 | -36.61980 | 145.17776 | 39930 ft | 413 kts | 351° |
| 2026-05-04 04:13 | -36.56272 | 145.17479 | 39928 ft | 414 kts | 351° |
| 2026-05-04 04:13 | -36.50519 | 145.17154 | 39927 ft | 413 kts | 351° |
| 2026-05-04 04:14 | -36.44767 | 145.16817 | 39922 ft | 414 kts | 351° |
| 2026-05-04 04:14 | -36.39019 | 145.16475 | 39932 ft | 413 kts | 351° |
| 2026-05-04 04:15 | -36.33309 | 145.16136 | 39925 ft | 413 kts | 351° |
| 2026-05-04 04:15 | -36.27543 | 145.15796 | 39930 ft | 414 kts | 351° |
| 2026-05-04 04:16 | -36.21794 | 145.15457 | 39929 ft | 413 kts | 351° |
| 2026-05-04 04:16 | -36.16050 | 145.15118 | 39939 ft | 414 kts | 351° |
| 2026-05-04 04:17 | -36.10338 | 145.14786 | 39932 ft | 413 kts | 351° |
| 2026-05-04 04:17 | -36.04597 | 145.14449 | 39937 ft | 413 kts | 351° |
| 2026-05-04 04:18 | -35.98856 | 145.14110 | 39942 ft | 414 kts | 350° |
| 2026-05-04 04:18 | -35.93098 | 145.13774 | 39943 ft | 413 kts | 350° |
| 2026-05-04 04:19 | -35.87367 | 145.13440 | 39944 ft | 414 kts | 350° |
| 2026-05-04 04:19 | -35.81594 | 145.13103 | 39949 ft | 414 kts | 350° |
| 2026-05-04 04:20 | -35.75863 | 145.12770 | 39948 ft | 413 kts | 350° |
| 2026-05-04 04:20 | -35.70105 | 145.12436 | 39947 ft | 414 kts | 350° |
| 2026-05-04 04:21 | -35.64381 | 145.12105 | 39949 ft | 412 kts | 350° |
| 2026-05-04 04:21 | -35.58644 | 145.11771 | 39959 ft | 413 kts | 350° |
| 2026-05-04 04:22 | -35.52919 | 145.11438 | 39952 ft | 413 kts | 350° |
| 2026-05-04 04:22 | -35.47181 | 145.11107 | 39965 ft | 413 kts | 350° |
| 2026-05-04 04:23 | -35.41462 | 145.10776 | 39962 ft | 412 kts | 350° |
| 2026-05-04 04:23 | -35.35766 | 145.10442 | 39953 ft | 412 kts | 350° |
| 2026-05-04 04:24 | -35.30016 | 145.10110 | 39950 ft | 413 kts | 350° |
| 2026-05-04 04:24 | -35.24321 | 145.09788 | 39952 ft | 412 kts | 350° |
| 2026-05-04 04:25 | -35.18593 | 145.09457 | 39956 ft | 413 kts | 350° |
| 2026-05-04 04:25 | -35.12868 | 145.09131 | 39962 ft | 412 kts | 350° |
| 2026-05-04 04:26 | -35.07155 | 145.08804 | 39957 ft | 411 kts | 350° |
| 2026-05-04 04:26 | -35.01425 | 145.08475 | 39953 ft | 411 kts | 350° |
| 2026-05-04 04:27 | -34.95728 | 145.08150 | 39962 ft | 411 kts | 350° |
| 2026-05-04 04:27 | -34.89946 | 145.08112 | 39970 ft | 417 kts | 355° |
| 2026-05-04 04:28 | -34.84169 | 145.08614 | 39960 ft | 417 kts | 356° |
| 2026-05-04 04:28 | -34.78359 | 145.09201 | 39976 ft | 417 kts | 356° |
| 2026-05-04 04:29 | -34.72581 | 145.09744 | 39970 ft | 417 kts | 356° |
| 2026-05-04 04:29 | -34.66793 | 145.10252 | 39977 ft | 417 kts | 356° |
| 2026-05-04 04:30 | -34.61004 | 145.10744 | 39984 ft | 418 kts | 356° |
| 2026-05-04 04:30 | -34.55228 | 145.11232 | 39987 ft | 417 kts | 356° |
| 2026-05-04 04:31 | -34.49427 | 145.11719 | 39986 ft | 416 kts | 355° |
| 2026-05-04 04:31 | -34.43634 | 145.12204 | 39988 ft | 418 kts | 356° |
| 2026-05-04 04:32 | -34.37854 | 145.12688 | 39992 ft | 416 kts | 355° |
| 2026-05-04 04:32 | -34.32093 | 145.13168 | 39994 ft | 416 kts | 355° |
| 2026-05-04 04:33 | -34.26320 | 145.13650 | 39989 ft | 416 kts | 355° |
| 2026-05-04 04:33 | -34.20573 | 145.14128 | 39994 ft | 416 kts | 355° |
| 2026-05-04 04:34 | -34.14778 | 145.14607 | 39994 ft | 417 kts | 355° |
| 2026-05-04 04:34 | -34.08988 | 145.15088 | 39998 ft | 415 kts | 355° |
| 2026-05-04 04:35 | -34.03243 | 145.15567 | 39994 ft | 414 kts | 355° |
| 2026-05-04 04:35 | -33.97483 | 145.16043 | 39999 ft | 415 kts | 355° |
| 2026-05-04 04:36 | -33.91712 | 145.16519 | 39996 ft | 417 kts | 355° |
| 2026-05-04 04:36 | -33.85931 | 145.16997 | 39999 ft | 415 kts | 355° |
| 2026-05-04 04:37 | -33.74384 | 145.17946 | 39989 ft | 416 kts | 355° |
| 2026-05-04 04:38 | -33.68604 | 145.18420 | 39996 ft | 417 kts | 355° |
| 2026-05-04 04:38 | -33.62928 | 145.18440 | 39989 ft | 397 kts | 338° |
| 2026-05-04 04:39 | -33.60486 | 145.17096 | 40009 ft | 385 kts | 320° |
| 2026-05-04 04:39 | -33.58452 | 145.15024 | 40012 ft | 383 kts | 313° |
| 2026-05-04 04:39 | -33.54694 | 145.10489 | 39996 ft | 381 kts | 313° |
| 2026-05-04 04:40 | -33.50832 | 145.06169 | 39995 ft | 383 kts | 315° |
| 2026-05-04 04:40 | -33.46789 | 145.02025 | 40008 ft | 383 kts | 316° |
| 2026-05-04 04:41 | -33.42690 | 144.97965 | 40012 ft | 382 kts | 317° |
| 2026-05-04 04:41 | -33.38564 | 144.93909 | 40009 ft | 383 kts | 317° |
| 2026-05-04 04:42 | -33.34450 | 144.89873 | 40008 ft | 384 kts | 317° |
| 2026-05-04 04:42 | -33.30332 | 144.85837 | 40008 ft | 384 kts | 317° |
| 2026-05-04 04:43 | -33.26212 | 144.81805 | 40009 ft | 383 kts | 317° |
| 2026-05-04 04:43 | -33.22082 | 144.77768 | 40006 ft | 384 kts | 317° |
| 2026-05-04 04:44 | -33.17944 | 144.73724 | 40009 ft | 385 kts | 317° |
| 2026-05-04 04:44 | -33.13792 | 144.69675 | 40008 ft | 385 kts | 317° |
| 2026-05-04 04:45 | -33.09652 | 144.65643 | 40007 ft | 384 kts | 317° |
| 2026-05-04 04:47 | -32.95196 | 144.51599 | 40013 ft | 384 kts | 317° |
| 2026-05-04 04:47 | -32.91067 | 144.47600 | 40015 ft | 385 kts | 317° |
| 2026-05-04 04:48 | -32.86886 | 144.43556 | 40018 ft | 385 kts | 317° |
| 2026-05-04 04:49 | -32.76506 | 144.33539 | 40015 ft | 387 kts | 317° |
| 2026-05-04 04:49 | -32.72329 | 144.29513 | 40014 ft | 384 kts | 317° |
| 2026-05-04 04:50 | -32.68188 | 144.25532 | 40015 ft | 384 kts | 317° |
| 2026-05-04 04:50 | -32.64055 | 144.21561 | 40014 ft | 385 kts | 317° |
| 2026-05-04 04:51 | -32.59895 | 144.17569 | 40017 ft | 384 kts | 317° |
| 2026-05-04 04:51 | -32.55750 | 144.13599 | 40020 ft | 385 kts | 317° |
| 2026-05-04 04:52 | -32.51574 | 144.09601 | 40022 ft | 384 kts | 317° |
| 2026-05-04 04:52 | -32.47411 | 144.05620 | 40026 ft | 384 kts | 317° |
| 2026-05-04 04:53 | -32.43276 | 144.01672 | 40028 ft | 385 kts | 317° |
| 2026-05-04 04:53 | -32.39112 | 143.97702 | 40029 ft | 385 kts | 317° |
| 2026-05-04 04:54 | -32.34936 | 143.93724 | 40033 ft | 384 kts | 317° |
| 2026-05-04 04:54 | -32.30795 | 143.89786 | 40032 ft | 384 kts | 317° |
| 2026-05-04 04:55 | -32.26640 | 143.85835 | 40031 ft | 385 kts | 317° |
| 2026-05-04 04:55 | -32.22459 | 143.81865 | 40032 ft | 385 kts | 317° |
| 2026-05-04 04:56 | -32.18291 | 143.77914 | 40026 ft | 385 kts | 317° |
| 2026-05-04 04:56 | -32.14103 | 143.73953 | 40029 ft | 386 kts | 317° |
| 2026-05-04 04:57 | -32.09934 | 143.70012 | 40032 ft | 383 kts | 317° |
| 2026-05-04 04:57 | -32.05775 | 143.66083 | 40033 ft | 386 kts | 317° |
| 2026-05-04 04:58 | -32.01601 | 143.62146 | 40034 ft | 385 kts | 317° |
| 2026-05-04 04:58 | -31.97403 | 143.58188 | 40035 ft | 385 kts | 317° |
| 2026-05-04 04:59 | -31.93246 | 143.54277 | 40036 ft | 385 kts | 317° |
| 2026-05-04 04:59 | -31.89061 | 143.50342 | 40039 ft | 385 kts | 317° |
| 2026-05-04 05:00 | -31.84886 | 143.46423 | 40038 ft | 384 kts | 317° |
| 2026-05-04 05:01 | -31.78612 | 143.40543 | 40037 ft | 385 kts | 317° |
| 2026-05-04 05:01 | -31.74433 | 143.36629 | 40041 ft | 383 kts | 317° |
| 2026-05-04 05:02 | -31.70279 | 143.32744 | 40041 ft | 385 kts | 317° |
| 2026-05-04 05:02 | -31.66089 | 143.28832 | 40041 ft | 384 kts | 317° |
| 2026-05-04 05:03 | -31.61908 | 143.24933 | 40046 ft | 383 kts | 317° |
| 2026-05-04 05:04 | -31.53566 | 143.17165 | 40050 ft | 385 kts | 317° |
| 2026-05-04 05:04 | -31.49400 | 143.13295 | 40048 ft | 383 kts | 317° |
| 2026-05-04 05:06 | -31.32664 | 142.97788 | 40058 ft | 383 kts | 318° |
| 2026-05-04 05:07 | -31.28457 | 142.93901 | 40056 ft | 384 kts | 317° |
| 2026-05-04 05:07 | -31.24279 | 142.90045 | 40061 ft | 384 kts | 317° |
| 2026-05-04 05:09 | -31.05432 | 142.72705 | 40067 ft | 383 kts | 318° |
| 2026-05-04 05:10 | -31.01265 | 142.68883 | 40067 ft | 382 kts | 318° |
| 2026-05-04 05:10 | -30.97084 | 142.65054 | 40064 ft | 383 kts | 317° |
| 2026-05-04 05:11 | -30.92887 | 142.61215 | 40066 ft | 384 kts | 317° |
| 2026-05-04 05:11 | -30.88700 | 142.57391 | 40094 ft | 381 kts | 317° |
| 2026-05-04 05:12 | -30.84551 | 142.53604 | 40048 ft | 380 kts | 317° |
| 2026-05-04 05:12 | -30.80368 | 142.49789 | 40083 ft | 381 kts | 317° |
| 2026-05-04 05:13 | -30.76221 | 142.46013 | 40066 ft | 380 kts | 317° |
| 2026-05-04 05:13 | -30.72073 | 142.42238 | 40068 ft | 380 kts | 317° |
| 2026-05-04 05:14 | -30.67894 | 142.38441 | 40060 ft | 381 kts | 317° |
| 2026-05-04 05:14 | -30.63743 | 142.34672 | 40044 ft | 380 kts | 318° |
| 2026-05-04 05:15 | -30.59563 | 142.30881 | 40043 ft | 381 kts | 318° |
| 2026-05-04 05:15 | -30.55394 | 142.27106 | 40042 ft | 381 kts | 318° |
| 2026-05-04 05:16 | -30.51244 | 142.23355 | 40055 ft | 381 kts | 318° |
| 2026-05-04 05:16 | -30.47042 | 142.19557 | 40070 ft | 381 kts | 318° |
| 2026-05-04 05:17 | -30.42890 | 142.15810 | 40068 ft | 380 kts | 318° |
| 2026-05-04 05:17 | -30.38714 | 142.12044 | 40065 ft | 381 kts | 318° |
| 2026-05-04 05:18 | -30.34561 | 142.08307 | 40060 ft | 379 kts | 318° |
| 2026-05-04 05:18 | -30.30397 | 142.04561 | 40062 ft | 379 kts | 318° |
| 2026-05-04 05:19 | -30.26222 | 142.00807 | 40060 ft | 379 kts | 318° |
| 2026-05-04 05:19 | -30.22049 | 141.97063 | 40068 ft | 380 kts | 318° |
| 2026-05-04 05:20 | -30.17902 | 141.93343 | 40077 ft | 379 kts | 318° |
| 2026-05-04 05:20 | -30.13724 | 141.89601 | 40080 ft | 380 kts | 318° |
| 2026-05-04 05:21 | -30.09564 | 141.85879 | 40081 ft | 378 kts | 318° |
| 2026-05-04 05:21 | -30.05382 | 141.82143 | 40082 ft | 380 kts | 318° |
| 2026-05-04 05:22 | -30.01209 | 141.78418 | 40082 ft | 380 kts | 318° |
| 2026-05-04 05:22 | -29.97045 | 141.74705 | 40084 ft | 380 kts | 318° |
| 2026-05-04 05:23 | -29.92860 | 141.70981 | 40085 ft | 378 kts | 318° |
| 2026-05-04 05:23 | -29.88685 | 141.67265 | 40085 ft | 379 kts | 318° |
| 2026-05-04 05:24 | -29.84544 | 141.63583 | 40083 ft | 379 kts | 318° |
| 2026-05-04 05:24 | -29.80371 | 141.59878 | 40085 ft | 379 kts | 318° |
| 2026-05-04 05:25 | -29.76211 | 141.56189 | 40080 ft | 376 kts | 318° |
| 2026-05-04 05:25 | -29.72061 | 141.52513 | 40084 ft | 378 kts | 318° |
| 2026-05-04 05:26 | -29.67919 | 141.48848 | 40079 ft | 376 kts | 318° |
| 2026-05-04 05:26 | -29.63765 | 141.45180 | 40083 ft | 377 kts | 318° |
| 2026-05-04 05:28 | -29.47175 | 141.30553 | 40079 ft | 375 kts | 319° |
| 2026-05-04 05:29 | -29.43034 | 141.26910 | 40080 ft | 376 kts | 319° |
| 2026-05-04 05:29 | -29.38887 | 141.23268 | 40080 ft | 374 kts | 319° |
| 2026-05-04 05:31 | -29.22352 | 141.08778 | 40078 ft | 375 kts | 319° |
| 2026-05-04 05:32 | -29.18195 | 141.05150 | 40077 ft | 376 kts | 318° |
| 2026-05-04 05:33 | -29.11960 | 140.99713 | 40076 ft | 374 kts | 318° |
| 2026-05-04 05:33 | -29.07826 | 140.96109 | 40076 ft | 376 kts | 318° |
| 2026-05-04 05:34 | -29.03677 | 140.92497 | 40076 ft | 375 kts | 318° |
| 2026-05-04 05:34 | -28.99537 | 140.88898 | 40076 ft | 375 kts | 318° |
| 2026-05-04 05:35 | -28.95394 | 140.85298 | 40076 ft | 373 kts | 318° |
| 2026-05-04 05:35 | -28.91233 | 140.81686 | 40076 ft | 376 kts | 318° |
| 2026-05-04 05:36 | -28.87105 | 140.78107 | 40075 ft | 372 kts | 318° |
| 2026-05-04 05:36 | -28.82939 | 140.74498 | 40077 ft | 375 kts | 318° |
| 2026-05-04 05:37 | -28.78832 | 140.70947 | 40073 ft | 371 kts | 318° |
| 2026-05-04 05:37 | -28.74697 | 140.67371 | 40076 ft | 375 kts | 318° |
| 2026-05-04 05:38 | -28.68495 | 140.62016 | 40076 ft | 371 kts | 318° |
| 2026-05-04 05:38 | -28.64375 | 140.58464 | 40076 ft | 373 kts | 318° |
| 2026-05-04 05:39 | -28.58189 | 140.53139 | 40079 ft | 372 kts | 318° |
| 2026-05-04 05:40 | -28.52014 | 140.47829 | 40080 ft | 370 kts | 318° |
| 2026-05-04 05:40 | -28.47902 | 140.44296 | 40078 ft | 372 kts | 318° |
| 2026-05-04 05:41 | -28.43761 | 140.40742 | 40079 ft | 371 kts | 318° |
| 2026-05-04 05:41 | -28.39648 | 140.37219 | 40083 ft | 372 kts | 318° |
| 2026-05-04 05:42 | -28.35522 | 140.33688 | 40083 ft | 371 kts | 319° |
| 2026-05-04 05:42 | -28.31393 | 140.30162 | 40083 ft | 369 kts | 318° |
| 2026-05-04 05:43 | -28.27283 | 140.26653 | 40084 ft | 371 kts | 318° |
| 2026-05-04 05:45 | -28.10828 | 140.12624 | 40089 ft | 368 kts | 319° |
| 2026-05-04 05:47 | -27.94417 | 139.98689 | 40076 ft | 369 kts | 318° |
| 2026-05-04 05:47 | -27.90319 | 139.95221 | 40073 ft | 367 kts | 319° |
| 2026-05-04 05:48 | -27.86225 | 139.91757 | 40074 ft | 369 kts | 318° |
| 2026-05-04 05:48 | -27.82141 | 139.88304 | 40077 ft | 367 kts | 318° |
| 2026-05-04 05:49 | -27.78045 | 139.84845 | 40076 ft | 368 kts | 318° |
| 2026-05-04 05:49 | -27.73938 | 139.81381 | 40078 ft | 367 kts | 318° |
| 2026-05-04 05:51 | -27.57567 | 139.67609 | 40080 ft | 367 kts | 318° |
| 2026-05-04 05:52 | -27.53504 | 139.64198 | 40081 ft | 366 kts | 318° |
| 2026-05-04 05:52 | -27.49417 | 139.60767 | 40079 ft | 366 kts | 318° |
| 2026-05-04 05:54 | -27.33041 | 139.47064 | 40085 ft | 365 kts | 318° |
| 2026-05-04 05:55 | -27.28984 | 139.43680 | 40087 ft | 365 kts | 318° |
| 2026-05-04 05:55 | -27.24906 | 139.40279 | 40086 ft | 364 kts | 318° |
| 2026-05-04 05:56 | -27.20841 | 139.36891 | 40088 ft | 363 kts | 318° |
| 2026-05-04 05:56 | -27.16781 | 139.33510 | 40091 ft | 367 kts | 319° |
| 2026-05-04 05:57 | -27.12709 | 139.30125 | 40088 ft | 363 kts | 319° |
| 2026-05-04 05:57 | -27.08637 | 139.26741 | 40088 ft | 364 kts | 318° |
| 2026-05-04 05:58 | -27.04579 | 139.23372 | 40091 ft | 363 kts | 319° |
| 2026-05-04 05:58 | -27.00542 | 139.20024 | 40088 ft | 361 kts | 318° |
| 2026-05-04 05:59 | -26.96487 | 139.16663 | 40090 ft | 364 kts | 318° |
| 2026-05-04 05:59 | -26.92409 | 139.13287 | 40089 ft | 362 kts | 319° |
| 2026-05-04 06:00 | -26.88361 | 139.09940 | 40090 ft | 363 kts | 319° |
| 2026-05-04 06:00 | -26.84293 | 139.06576 | 40091 ft | 364 kts | 318° |
| 2026-05-04 06:01 | -26.80228 | 139.03221 | 40094 ft | 363 kts | 319° |
| 2026-05-04 06:03 | -26.63976 | 138.89835 | 40096 ft | 362 kts | 318° |
| 2026-05-04 06:05 | -26.45692 | 138.74834 | 40096 ft | 362 kts | 319° |
| 2026-05-04 06:06 | -26.41636 | 138.71513 | 40096 ft | 363 kts | 319° |
| 2026-05-04 06:06 | -26.37583 | 138.68198 | 40093 ft | 360 kts | 318° |
| 2026-05-04 06:07 | -26.33528 | 138.64885 | 40085 ft | 361 kts | 318° |
| 2026-05-04 06:07 | -26.29477 | 138.61580 | 40083 ft | 361 kts | 319° |
| 2026-05-04 06:08 | -26.25419 | 138.58273 | 40084 ft | 361 kts | 319° |
| 2026-05-04 06:08 | -26.21396 | 138.54994 | 40084 ft | 361 kts | 319° |
| 2026-05-04 06:09 | -26.17339 | 138.51691 | 40081 ft | 360 kts | 319° |
| 2026-05-04 06:11 | -26.01151 | 138.38542 | 40082 ft | 359 kts | 319° |
| 2026-05-04 06:13 | -25.84927 | 138.25407 | 40087 ft | 361 kts | 319° |
| 2026-05-04 06:14 | -25.70695 | 138.13924 | 40087 ft | 361 kts | 319° |
| 2026-05-04 06:15 | -25.66637 | 138.10655 | 40092 ft | 361 kts | 319° |
| 2026-05-04 06:15 | -25.62571 | 138.07384 | 40089 ft | 360 kts | 319° |
| 2026-05-04 06:16 | -25.58528 | 138.04134 | 40093 ft | 361 kts | 319° |
| 2026-05-04 06:16 | -25.54467 | 138.00871 | 40084 ft | 360 kts | 319° |
| 2026-05-04 06:17 | -25.50391 | 137.97597 | 40089 ft | 360 kts | 319° |
| 2026-05-04 06:17 | -25.46350 | 137.94357 | 40090 ft | 361 kts | 319° |
| 2026-05-04 06:18 | -25.42271 | 137.91089 | 40087 ft | 361 kts | 319° |
| 2026-05-04 06:20 | -25.26029 | 137.78107 | 40086 ft | 360 kts | 319° |
| 2026-05-04 06:21 | -25.15855 | 137.69997 | 40089 ft | 361 kts | 319° |
| 2026-05-04 06:22 | -25.11800 | 137.66766 | 40089 ft | 361 kts | 319° |
| 2026-05-04 06:25 | -24.83287 | 137.44142 | 40093 ft | 360 kts | 319° |
| 2026-05-04 06:26 | -24.79220 | 137.40926 | 40090 ft | 362 kts | 319° |
| 2026-05-04 06:26 | -24.75107 | 137.37676 | 40092 ft | 362 kts | 319° |
| 2026-05-04 06:27 | -24.64871 | 137.29601 | 40102 ft | 362 kts | 319° |
| 2026-05-04 06:28 | -24.60763 | 137.26364 | 40092 ft | 362 kts | 319° |
| 2026-05-04 06:28 | -24.56678 | 137.23149 | 40097 ft | 363 kts | 319° |
| 2026-05-04 06:29 | -24.52566 | 137.19911 | 40099 ft | 365 kts | 319° |
| 2026-05-04 06:29 | -24.48466 | 137.16692 | 40102 ft | 364 kts | 319° |
| 2026-05-04 06:30 | -24.44356 | 137.13466 | 40095 ft | 362 kts | 320° |
| 2026-05-04 06:30 | -24.40239 | 137.10239 | 40093 ft | 364 kts | 319° |
| 2026-05-04 06:31 | -24.36129 | 137.07014 | 40100 ft | 366 kts | 319° |
| 2026-05-04 06:31 | -24.31996 | 137.03778 | 40097 ft | 363 kts | 319° |
| 2026-05-04 06:33 | -24.15523 | 136.90897 | 40089 ft | 364 kts | 319° |
| 2026-05-04 06:34 | -24.11421 | 136.87695 | 40095 ft | 364 kts | 319° |
| 2026-05-04 06:34 | -24.07285 | 136.84471 | 40095 ft | 365 kts | 319° |
| 2026-05-04 06:36 | -23.90791 | 136.71640 | 40096 ft | 364 kts | 319° |
| 2026-05-04 06:37 | -23.86638 | 136.68414 | 40092 ft | 365 kts | 319° |
| 2026-05-04 06:37 | -23.82513 | 136.65216 | 40095 ft | 365 kts | 319° |
| 2026-05-04 06:38 | -23.78371 | 136.62006 | 40098 ft | 366 kts | 319° |
| 2026-05-04 06:40 | -23.61736 | 136.49133 | 40101 ft | 367 kts | 319° |
| 2026-05-04 06:40 | -23.57579 | 136.45924 | 40103 ft | 368 kts | 319° |
| 2026-05-04 06:41 | -23.53407 | 136.42708 | 40106 ft | 367 kts | 319° |
| 2026-05-04 06:41 | -23.49202 | 136.39467 | 40106 ft | 368 kts | 319° |
| 2026-05-04 06:42 | -23.45024 | 136.36247 | 40109 ft | 369 kts | 319° |
| 2026-05-04 06:44 | -23.28274 | 136.23369 | 40106 ft | 370 kts | 319° |
| 2026-05-04 06:44 | -23.24053 | 136.20132 | 40111 ft | 369 kts | 319° |
| 2026-05-04 06:45 | -23.19857 | 136.16921 | 40107 ft | 370 kts | 319° |
| 2026-05-04 06:45 | -23.15648 | 136.13698 | 40106 ft | 369 kts | 319° |
| 2026-05-04 06:46 | -23.11452 | 136.10487 | 40107 ft | 369 kts | 319° |
| 2026-05-04 06:46 | -23.07274 | 136.07291 | 40108 ft | 370 kts | 319° |
| 2026-05-04 06:48 | -22.90404 | 135.94412 | 40108 ft | 370 kts | 319° |
| 2026-05-04 06:50 | -22.73378 | 135.81618 | 40107 ft | 376 kts | 323° |
| 2026-05-04 06:51 | -22.68722 | 135.79024 | 40106 ft | 380 kts | 326° |
| 2026-05-04 06:51 | -22.63928 | 135.76527 | 40106 ft | 381 kts | 327° |
| 2026-05-04 06:52 | -22.59155 | 135.74008 | 40105 ft | 380 kts | 326° |
| 2026-05-04 06:52 | -22.54418 | 135.71475 | 40109 ft | 382 kts | 326° |
| 2026-05-04 06:53 | -22.49661 | 135.68919 | 40107 ft | 380 kts | 326° |
| 2026-05-04 06:53 | -22.44907 | 135.66360 | 40109 ft | 383 kts | 326° |
| 2026-05-04 06:54 | -22.40146 | 135.63798 | 40102 ft | 382 kts | 326° |
| 2026-05-04 06:54 | -22.35402 | 135.61247 | 40104 ft | 381 kts | 326° |
| 2026-05-04 06:55 | -22.30605 | 135.58668 | 40108 ft | 384 kts | 326° |
| 2026-05-04 06:55 | -22.25818 | 135.56100 | 40102 ft | 382 kts | 326° |
| 2026-05-04 06:57 | -22.06689 | 135.45845 | 40099 ft | 385 kts | 326° |
| 2026-05-04 06:58 | -22.01879 | 135.43275 | 40100 ft | 384 kts | 326° |
| 2026-05-04 06:58 | -21.97077 | 135.40706 | 40097 ft | 386 kts | 326° |
| 2026-05-04 06:59 | -21.92267 | 135.38138 | 40095 ft | 385 kts | 326° |
| 2026-05-04 06:59 | -21.87453 | 135.35568 | 40095 ft | 386 kts | 326° |
| 2026-05-04 07:01 | -21.68127 | 135.25275 | 40098 ft | 387 kts | 327° |
| 2026-05-04 07:02 | -21.63281 | 135.22697 | 40099 ft | 388 kts | 326° |
| 2026-05-04 07:02 | -21.58411 | 135.20106 | 40100 ft | 390 kts | 327° |
| 2026-05-04 07:03 | -21.53551 | 135.17529 | 40100 ft | 390 kts | 327° |
| 2026-05-04 07:03 | -21.48678 | 135.14944 | 40104 ft | 388 kts | 327° |
| 2026-05-04 07:04 | -21.43833 | 135.12375 | 40101 ft | 391 kts | 327° |
| 2026-05-04 07:04 | -21.38954 | 135.09775 | 40097 ft | 389 kts | 326° |
| 2026-05-04 07:05 | -21.34096 | 135.07172 | 40101 ft | 389 kts | 326° |
| 2026-05-04 07:05 | -21.29243 | 135.04575 | 40101 ft | 391 kts | 327° |
| 2026-05-04 07:06 | -21.21927 | 135.00668 | 40098 ft | 391 kts | 326° |
| 2026-05-04 07:07 | -21.17033 | 134.98053 | 40099 ft | 392 kts | 327° |
| 2026-05-04 07:09 | -20.97522 | 134.87660 | 40093 ft | 393 kts | 327° |
| 2026-05-04 07:09 | -20.92619 | 134.85056 | 40093 ft | 394 kts | 327° |
| 2026-05-04 07:10 | -20.87700 | 134.82445 | 40091 ft | 394 kts | 327° |
| 2026-05-04 07:12 | -20.67992 | 134.71991 | 40088 ft | 395 kts | 327° |
| 2026-05-04 07:12 | -20.63081 | 134.69391 | 40088 ft | 396 kts | 327° |
| 2026-05-04 07:13 | -20.58124 | 134.66768 | 40082 ft | 397 kts | 327° |
| 2026-05-04 07:13 | -20.53182 | 134.64153 | 40078 ft | 396 kts | 327° |
| 2026-05-04 07:14 | -20.40789 | 134.57614 | 40078 ft | 400 kts | 327° |
| 2026-05-04 07:15 | -20.35799 | 134.54982 | 40080 ft | 400 kts | 327° |
| 2026-05-04 07:15 | -20.30810 | 134.52354 | 40079 ft | 400 kts | 327° |
| 2026-05-04 07:16 | -20.25800 | 134.49715 | 40077 ft | 401 kts | 327° |
| 2026-05-04 07:16 | -20.20797 | 134.47086 | 40079 ft | 400 kts | 327° |
| 2026-05-04 07:17 | -20.15777 | 134.44446 | 40075 ft | 402 kts | 327° |
| 2026-05-04 07:17 | -20.10799 | 134.41832 | 40073 ft | 402 kts | 327° |
| 2026-05-04 07:18 | -20.05778 | 134.39194 | 40068 ft | 404 kts | 327° |
| 2026-05-04 07:18 | -20.00727 | 134.36548 | 40063 ft | 401 kts | 327° |
| 2026-05-04 07:19 | -19.95723 | 134.33922 | 40061 ft | 405 kts | 328° |
| 2026-05-04 07:19 | -19.90641 | 134.31259 | 40056 ft | 404 kts | 328° |
| 2026-05-04 07:20 | -19.85617 | 134.28632 | 40058 ft | 403 kts | 328° |
| 2026-05-04 07:20 | -19.80545 | 134.25980 | 40056 ft | 404 kts | 328° |
| 2026-05-04 07:22 | -19.60159 | 134.15826 | 40048 ft | 411 kts | 334° |
| 2026-05-04 07:23 | -19.54699 | 134.13896 | 40053 ft | 412 kts | 335° |
| 2026-05-04 07:23 | -19.49262 | 134.12004 | 40049 ft | 413 kts | 335° |
| 2026-05-04 07:24 | -19.43813 | 134.10077 | 40049 ft | 413 kts | 334° |
| 2026-05-04 07:24 | -19.38353 | 134.08125 | 40052 ft | 411 kts | 334° |
| 2026-05-04 07:26 | -19.16630 | 134.00310 | 40045 ft | 413 kts | 334° |
| 2026-05-04 07:27 | -19.11160 | 133.98341 | 40047 ft | 414 kts | 334° |
| 2026-05-04 07:27 | -19.05705 | 133.96382 | 40042 ft | 414 kts | 334° |
| 2026-05-04 07:28 | -19.00270 | 133.94434 | 40045 ft | 412 kts | 334° |
| 2026-05-04 07:28 | -18.94820 | 133.92479 | 40034 ft | 413 kts | 335° |
| 2026-05-04 07:29 | -18.89368 | 133.90523 | 40042 ft | 415 kts | 334° |
| 2026-05-04 07:29 | -18.83897 | 133.88564 | 40030 ft | 414 kts | 334° |
| 2026-05-04 07:30 | -18.78392 | 133.86589 | 40030 ft | 417 kts | 334° |
| 2026-05-04 07:30 | -18.72941 | 133.84641 | 40032 ft | 416 kts | 334° |
| 2026-05-04 07:31 | -18.67437 | 133.82671 | 40015 ft | 415 kts | 334° |
| 2026-05-04 07:33 | -18.45455 | 133.74829 | 40017 ft | 415 kts | 334° |
| 2026-05-04 07:33 | -18.39942 | 133.72864 | 40008 ft | 417 kts | 334° |
| 2026-05-04 07:34 | -18.34454 | 133.70909 | 40006 ft | 417 kts | 334° |
| 2026-05-04 07:34 | -18.28942 | 133.68950 | 40014 ft | 417 kts | 334° |
| 2026-05-04 07:35 | -18.23446 | 133.66992 | 39999 ft | 417 kts | 334° |
| 2026-05-04 07:35 | -18.17959 | 133.65044 | 40006 ft | 418 kts | 334° |
| 2026-05-04 07:36 | -18.12390 | 133.63062 | 39992 ft | 421 kts | 334° |
| 2026-05-04 07:38 | -17.90255 | 133.55217 | 39986 ft | 422 kts | 334° |
| 2026-05-04 07:38 | -17.84668 | 133.53239 | 39985 ft | 422 kts | 334° |
| 2026-05-04 07:39 | -17.79087 | 133.51265 | 39981 ft | 423 kts | 334° |
| 2026-05-04 07:39 | -17.73512 | 133.49293 | 39976 ft | 422 kts | 334° |
| 2026-05-04 07:40 | -17.67928 | 133.47322 | 39974 ft | 424 kts | 334° |
| 2026-05-04 07:40 | -17.62333 | 133.45348 | 39971 ft | 424 kts | 334° |
| 2026-05-04 07:41 | -17.56756 | 133.43382 | 39971 ft | 423 kts | 334° |
| 2026-05-04 07:41 | -17.51151 | 133.41406 | 39968 ft | 425 kts | 334° |
| 2026-05-04 07:42 | -17.45535 | 133.39427 | 39965 ft | 426 kts | 334° |
| 2026-05-04 07:42 | -17.39915 | 133.37451 | 39963 ft | 424 kts | 334° |
| 2026-05-04 07:43 | -17.34313 | 133.35481 | 39960 ft | 425 kts | 335° |
| 2026-05-04 07:43 | -17.28683 | 133.33502 | 39957 ft | 425 kts | 335° |
| 2026-05-04 07:44 | -17.23041 | 133.31517 | 39957 ft | 427 kts | 335° |
| 2026-05-04 07:44 | -17.17403 | 133.29536 | 39956 ft | 426 kts | 335° |
| 2026-05-04 07:45 | -17.11774 | 133.27562 | 39958 ft | 428 kts | 335° |
| 2026-05-04 07:45 | -17.06142 | 133.25586 | 39966 ft | 427 kts | 335° |
| 2026-05-04 07:46 | -17.00485 | 133.23602 | 39969 ft | 427 kts | 335° |
| 2026-05-04 07:46 | -16.94838 | 133.21623 | 39963 ft | 430 kts | 335° |
| 2026-05-04 07:47 | -16.89155 | 133.19636 | 39962 ft | 429 kts | 335° |
| 2026-05-04 07:49 | -16.66485 | 133.11658 | 39954 ft | 430 kts | 335° |
| 2026-05-04 07:49 | -16.60766 | 133.09650 | 39954 ft | 431 kts | 335° |
| 2026-05-04 07:50 | -16.55098 | 133.07660 | 39950 ft | 431 kts | 336° |
| 2026-05-04 07:50 | -16.49391 | 133.05659 | 39947 ft | 432 kts | 335° |
| 2026-05-04 07:51 | -16.43666 | 133.03651 | 39945 ft | 434 kts | 336° |
| 2026-05-04 07:51 | -16.37960 | 133.01653 | 39947 ft | 433 kts | 336° |
| 2026-05-04 07:52 | -16.32255 | 132.99658 | 39950 ft | 433 kts | 336° |
| 2026-05-04 07:52 | -16.26517 | 132.97650 | 39949 ft | 433 kts | 336° |
| 2026-05-04 07:54 | -16.03653 | 132.89664 | 38859 ft | 433 kts | 336° |
| 2026-05-04 07:55 | -16.00752 | 132.88647 | 37778 ft | 438 kts | 335° |
| 2026-05-04 07:55 | -15.97895 | 132.87651 | 37298 ft | 430 kts | 335° |
| 2026-05-04 07:55 | -15.95046 | 132.86661 | 36827 ft | 428 kts | 335° |
| 2026-05-04 07:55 | -15.92245 | 132.85686 | 36251 ft | 428 kts | 335° |
| 2026-05-04 07:56 | -15.89395 | 132.84691 | 35621 ft | 428 kts | 335° |
| 2026-05-04 07:56 | -15.86574 | 132.83708 | 34931 ft | 428 kts | 335° |
| 2026-05-04 07:56 | -15.83759 | 132.82729 | 34220 ft | 428 kts | 335° |
| 2026-05-04 07:56 | -15.80920 | 132.81740 | 33487 ft | 427 kts | 335° |
| 2026-05-04 07:57 | -15.78102 | 132.80759 | 32744 ft | 426 kts | 335° |
| 2026-05-04 07:57 | -15.75307 | 132.79787 | 32050 ft | 427 kts | 335° |
| 2026-05-04 07:57 | -15.72486 | 132.78804 | 31304 ft | 426 kts | 336° |
| 2026-05-04 07:57 | -15.69687 | 132.77830 | 30528 ft | 425 kts | 335° |
| 2026-05-04 07:58 | -15.66906 | 132.76863 | 29737 ft | 424 kts | 336° |
| 2026-05-04 07:58 | -15.64102 | 132.75888 | 29114 ft | 427 kts | 336° |
| 2026-05-04 07:58 | -15.61222 | 132.74884 | 28520 ft | 435 kts | 336° |
| 2026-05-04 07:58 | -15.58362 | 132.73888 | 27903 ft | 432 kts | 336° |
| 2026-05-04 07:59 | -15.55537 | 132.72910 | 27279 ft | 425 kts | 336° |
| 2026-05-04 07:59 | -15.52758 | 132.71948 | 26653 ft | 418 kts | 336° |
| 2026-05-04 07:59 | -15.50007 | 132.70996 | 26034 ft | 411 kts | 336° |
| 2026-05-04 07:59 | -15.47310 | 132.70064 | 25420 ft | 405 kts | 337° |
| 2026-05-04 08:00 | -15.44663 | 132.69148 | 24814 ft | 401 kts | 337° |
| 2026-05-04 08:00 | -15.42024 | 132.68233 | 24212 ft | 403 kts | 337° |
| 2026-05-04 08:00 | -15.39362 | 132.67308 | 23577 ft | 401 kts | 337° |
| 2026-05-04 08:02 | -15.21547 | 132.61133 | 19380 ft | 376 kts | 338° |
| 2026-05-04 08:02 | -15.19072 | 132.60277 | 18786 ft | 374 kts | 338° |
| 2026-05-04 08:02 | -15.16612 | 132.59424 | 18190 ft | 378 kts | 338° |
| 2026-05-04 08:03 | -15.14101 | 132.58553 | 17584 ft | 375 kts | 338° |
| 2026-05-04 08:03 | -15.11647 | 132.57706 | 16988 ft | 369 kts | 339° |
| 2026-05-04 08:03 | -15.09233 | 132.56871 | 16399 ft | 366 kts | 339° |
| 2026-05-04 08:03 | -15.06797 | 132.56027 | 15806 ft | 371 kts | 339° |
| 2026-05-04 08:04 | -15.04362 | 132.55183 | 15206 ft | 368 kts | 339° |
| 2026-05-04 08:04 | -15.01923 | 132.54340 | 14608 ft | 362 kts | 339° |
| 2026-05-04 08:04 | -14.99543 | 132.53516 | 14021 ft | 358 kts | 339° |
| 2026-05-04 08:04 | -14.97175 | 132.52698 | 13431 ft | 362 kts | 339° |
| 2026-05-04 08:05 | -14.94795 | 132.51875 | 12840 ft | 362 kts | 339° |
| 2026-05-04 08:05 | -14.92421 | 132.51056 | 12245 ft | 358 kts | 340° |
| 2026-05-04 08:05 | -14.90066 | 132.50246 | 11759 ft | 350 kts | 340° |
| 2026-05-04 08:05 | -14.87763 | 132.49451 | 11499 ft | 345 kts | 340° |
| 2026-05-04 08:06 | -14.85450 | 132.48653 | 11371 ft | 355 kts | 340° |
| 2026-05-04 08:06 | -14.83083 | 132.47835 | 11220 ft | 356 kts | 340° |
| 2026-05-04 08:06 | -14.80747 | 132.47028 | 11027 ft | 350 kts | 340° |
| 2026-05-04 08:06 | -14.78440 | 132.46233 | 10646 ft | 340 kts | 341° |
| 2026-05-04 08:08 | -14.64682 | 132.41496 | 9004 ft | 278 kts | 342° |
| 2026-05-04 08:08 | -14.62866 | 132.40872 | 8661 ft | 275 kts | 342° |
| 2026-05-04 08:10 | -14.48213 | 132.35906 | 5935 ft | 272 kts | 345° |
| 2026-05-04 08:11 | -14.46424 | 132.35341 | 5729 ft | 268 kts | 345° |
| 2026-05-04 08:11 | -14.42928 | 132.34225 | 5583 ft | 252 kts | 345° |
| 2026-05-04 08:11 | -14.41294 | 132.33702 | 5508 ft | 243 kts | 345° |
| 2026-05-04 08:12 | -14.39702 | 132.33192 | 5419 ft | 235 kts | 345° |
| 2026-05-04 08:12 | -14.38165 | 132.32700 | 5332 ft | 226 kts | 345° |
| 2026-05-04 08:12 | -14.36685 | 132.32224 | 5241 ft | 218 kts | 345° |
| 2026-05-04 08:12 | -14.35276 | 132.31651 | 5041 ft | 218 kts | 328° |
| 2026-05-04 08:13 | -14.34326 | 132.30452 | 4813 ft | 221 kts | 292° |
| 2026-05-04 08:13 | -14.34074 | 132.28888 | 4570 ft | 221 kts | 267° |
| 2026-05-04 08:13 | -14.34338 | 132.27347 | 4332 ft | 219 kts | 246° |
| 2026-05-04 08:13 | -14.35227 | 132.26115 | 4094 ft | 213 kts | 212° |
| 2026-05-04 08:14 | -14.36536 | 132.25490 | 3909 ft | 205 kts | 192° |
| 2026-05-04 08:14 | -14.37917 | 132.25328 | 3697 ft | 195 kts | 171° |
| 2026-05-04 08:14 | -14.39126 | 132.25801 | 3547 ft | 180 kts | 143° |
| 2026-05-04 08:16 | -14.44412 | 132.30762 | 2345 ft | 118 kts | 135° |
| 2026-05-04 08:16 | -14.45025 | 132.31319 | 2291 ft | 115 kts | 135° |
| 2026-05-04 08:16 | -14.45638 | 132.31874 | 2304 ft | 118 kts | 134° |
| 2026-05-04 08:17 | -14.46265 | 132.32423 | 2277 ft | 121 kts | 137° |
| 2026-05-04 08:17 | -14.46969 | 132.32988 | 1844 ft | 135 kts | 138° |
| 2026-05-04 08:17 | -14.47671 | 132.33606 | 1498 ft | 132 kts | 134° |
| 2026-05-04 08:17 | -14.48322 | 132.34238 | 1233 ft | 123 kts | 132° |
| 2026-05-04 08:19 | -14.52342 | 132.37894 | 461 ft | 47 kts | 136° |
| 2026-05-04 08:19 | -14.52492 | 132.38117 | 463 ft | 30 kts | 107° |
| 2026-05-04 08:20 | -14.52529 | 132.38292 | 464 ft | 25 kts | 96° |
| 2026-05-04 08:20 | -14.52549 | 132.38475 | 464 ft | 23 kts | 97° |
| 2026-05-04 08:20 | -14.52570 | 132.38654 | 465 ft | 24 kts | 97° |
| 2026-05-04 08:20 | -14.52501 | 132.38770 | 466 ft | 24 kts | 7° |
| 2026-05-04 08:21 | -14.52334 | 132.38786 | 467 ft | 24 kts | 6° |
| 2026-05-04 08:21 | -14.52169 | 132.38802 | 469 ft | 23 kts | 3° |
| 2026-05-04 08:21 | -14.52013 | 132.38815 | 469 ft | 21 kts | 6° |
| 2026-05-04 08:21 | -14.51844 | 132.38835 | 466 ft | 18 kts | 8° |
| 2026-05-04 08:22 | -14.51832 | 132.38917 | 468 ft | 14 kts | 96° |
| 2026-05-04 08:22 | -14.51842 | 132.39033 | 470 ft | 18 kts | 95° |